sensor_id;sensor_type;location;lat;lon;timestamp;temperature;humidity
25112;DHT22;13092;51.996;4.458;2022-11-11T00:01:15;12.60;99.90
25112;DHT22;13092;51.996;4.458;2022-11-11T00:03:45;12.50;99.90
25112;DHT22;13092;51.996;4.458;2022-11-11T00:06:16;12.50;99.90
25112;DHT22;13092;51.996;4.458;2022-11-11T00:08:46;12.50;99.90
25112;DHT22;13092;51.996;4.458;2022-11-11T00:11:15;12.60;99.90
25112;DHT22;13092;51.996;4.458;2022-11-11T00:13:43;12.50;99.90
25112;DHT22;13092;51.996;4.458;2022-11-11T00:16:14;12.50;99.90
25112;DHT22;13092;51.996;4.458;2022-11-11T00:18:43;12.40;99.90
25112;DHT22;13092;51.996;4.458;2022-11-11T00:21:30;12.30;99.90
25112;DHT22;13092;51.996;4.458;2022-11-11T00:24:22;12.50;99.90
25112;DHT22;13092;51.996;4.458;2022-11-11T00:27:09;12.40;99.90
25112;DHT22;13092;51.996;4.458;2022-11-11T00:29:37;12.40;99.90
25112;DHT22;13092;51.996;4.458;2022-11-11T00:32:07;12.30;99.90
25112;DHT22;13092;51.996;4.458;2022-11-11T00:34:54;12.30;99.90
25112;DHT22;13092;51.996;4.458;2022-11-11T00:37:42;12.40;99.90
25112;DHT22;13092;51.996;4.458;2022-11-11T00:40:12;12.30;99.90
25112;DHT22;13092;51.996;4.458;2022-11-11T00:42:40;12.30;99.90
25112;DHT22;13092;51.996;4.458;2022-11-11T00:45:09;12.30;99.90
25112;DHT22;13092;51.996;4.458;2022-11-11T00:47:38;12.40;99.90
25112;DHT22;13092;51.996;4.458;2022-11-11T00:50:24;12.50;99.90
25112;DHT22;13092;51.996;4.458;2022-11-11T00:53:13;12.30;99.90
25112;DHT22;13092;51.996;4.458;2022-11-11T00:55:46;12.30;99.90
25112;DHT22;13092;51.996;4.458;2022-11-11T00:58:14;12.10;99.90
25112;DHT22;13092;51.996;4.458;2022-11-11T01:00:43;12.20;99.90
25112;DHT22;13092;51.996;4.458;2022-11-11T01:03:11;12.20;99.90
25112;DHT22;13092;51.996;4.458;2022-11-11T01:05:39;12.20;99.90
25112;DHT22;13092;51.996;4.458;2022-11-11T01:08:07;12.20;99.90
25112;DHT22;13092;51.996;4.458;2022-11-11T01:10:37;12.10;99.90
25112;DHT22;13092;51.996;4.458;2022-11-11T01:13:11;12.20;99.90
25112;DHT22;13092;51.996;4.458;2022-11-11T01:15:40;12.20;99.90
25112;DHT22;13092;51.996;4.458;2022-11-11T01:18:10;12.20;99.90
25112;DHT22;13092;51.996;4.458;2022-11-11T01:20:39;12.20;99.90
25112;DHT22;13092;51.996;4.458;2022-11-11T01:23:09;12.20;99.90
25112;DHT22;13092;51.996;4.458;2022-11-11T01:25:40;12.20;99.90
25112;DHT22;13092;51.996;4.458;2022-11-11T01:28:08;12.20;99.90
25112;DHT22;13092;51.996;4.458;2022-11-11T01:30:36;12.20;99.90
25112;DHT22;13092;51.996;4.458;2022-11-11T01:33:07;12.20;99.90
25112;DHT22;13092;51.996;4.458;2022-11-11T01:35:38;12.20;99.90
25112;DHT22;13092;51.996;4.458;2022-11-11T01:38:06;12.10;99.90
25112;DHT22;13092;51.996;4.458;2022-11-11T01:40:47;12.10;99.90
25112;DHT22;13092;51.996;4.458;2022-11-11T01:43:21;12.00;99.90
25112;DHT22;13092;51.996;4.458;2022-11-11T01:45:54;12.10;99.90
25112;DHT22;13092;51.996;4.458;2022-11-11T01:48:32;12.10;99.90
25112;DHT22;13092;51.996;4.458;2022-11-11T01:51:25;12.10;99.90
25112;DHT22;13092;51.996;4.458;2022-11-11T01:53:59;12.10;99.90
25112;DHT22;13092;51.996;4.458;2022-11-11T01:56:30;12.10;99.90
25112;DHT22;13092;51.996;4.458;2022-11-11T01:59:01;12.10;99.90
25112;DHT22;13092;51.996;4.458;2022-11-11T02:01:31;12.10;99.90
25112;DHT22;13092;51.996;4.458;2022-11-11T02:04:00;12.20;99.90
25112;DHT22;13092;51.996;4.458;2022-11-11T02:06:46;12.10;99.90
25112;DHT22;13092;51.996;4.458;2022-11-11T02:09:15;12.10;99.90
25112;DHT22;13092;51.996;4.458;2022-11-11T02:11:45;12.00;99.90
25112;DHT22;13092;51.996;4.458;2022-11-11T02:14:40;12.00;99.90
25112;DHT22;13092;51.996;4.458;2022-11-11T02:17:11;12.10;99.90
25112;DHT22;13092;51.996;4.458;2022-11-11T02:19:45;12.00;99.90
25112;DHT22;13092;51.996;4.458;2022-11-11T02:22:23;12.00;99.90
25112;DHT22;13092;51.996;4.458;2022-11-11T02:24:55;11.80;99.90
25112;DHT22;13092;51.996;4.458;2022-11-11T02:27:25;11.90;99.90
25112;DHT22;13092;51.996;4.458;2022-11-11T02:29:55;11.90;99.90
25112;DHT22;13092;51.996;4.458;2022-11-11T02:32:24;11.90;99.90
25112;DHT22;13092;51.996;4.458;2022-11-11T02:34:53;11.90;99.90
25112;DHT22;13092;51.996;4.458;2022-11-11T02:37:24;11.90;99.90
25112;DHT22;13092;51.996;4.458;2022-11-11T02:39:59;11.90;99.90
25112;DHT22;13092;51.996;4.458;2022-11-11T02:42:32;11.90;99.90
25112;DHT22;13092;51.996;4.458;2022-11-11T02:45:04;11.90;99.90
25112;DHT22;13092;51.996;4.458;2022-11-11T02:47:34;11.80;99.90
25112;DHT22;13092;51.996;4.458;2022-11-11T02:50:03;11.90;99.90
25112;DHT22;13092;51.996;4.458;2022-11-11T02:52:31;11.80;99.90
25112;DHT22;13092;51.996;4.458;2022-11-11T02:55:01;11.80;99.90
25112;DHT22;13092;51.996;4.458;2022-11-11T02:57:30;11.80;99.90
25112;DHT22;13092;51.996;4.458;2022-11-11T02:59:59;11.80;99.90
25112;DHT22;13092;51.996;4.458;2022-11-11T03:02:28;11.80;99.90
25112;DHT22;13092;51.996;4.458;2022-11-11T03:04:56;11.70;99.90
25112;DHT22;13092;51.996;4.458;2022-11-11T03:07:25;11.70;99.90
25112;DHT22;13092;51.996;4.458;2022-11-11T03:09:53;11.70;99.90
25112;DHT22;13092;51.996;4.458;2022-11-11T03:12:23;11.70;99.90
25112;DHT22;13092;51.996;4.458;2022-11-11T03:14:51;11.70;99.90
25112;DHT22;13092;51.996;4.458;2022-11-11T03:17:20;11.70;99.90
25112;DHT22;13092;51.996;4.458;2022-11-11T03:20:07;11.70;99.90
25112;DHT22;13092;51.996;4.458;2022-11-11T03:23:00;11.70;99.90
25112;DHT22;13092;51.996;4.458;2022-11-11T03:25:29;11.70;99.90
25112;DHT22;13092;51.996;4.458;2022-11-11T03:28:09;11.70;99.90
25112;DHT22;13092;51.996;4.458;2022-11-11T03:30:39;11.60;99.90
25112;DHT22;13092;51.996;4.458;2022-11-11T03:33:07;11.60;99.90
25112;DHT22;13092;51.996;4.458;2022-11-11T03:35:36;11.70;99.90
25112;DHT22;13092;51.996;4.458;2022-11-11T03:38:06;11.70;99.90
25112;DHT22;13092;51.996;4.458;2022-11-11T03:40:50;11.70;99.90
25112;DHT22;13092;51.996;4.458;2022-11-11T03:43:21;11.60;99.90
25112;DHT22;13092;51.996;4.458;2022-11-11T03:45:50;11.70;99.90
25112;DHT22;13092;51.996;4.458;2022-11-11T03:48:18;11.70;99.90
25112;DHT22;13092;51.996;4.458;2022-11-11T03:50:47;11.70;99.90
25112;DHT22;13092;51.996;4.458;2022-11-11T03:53:17;11.70;99.90
25112;DHT22;13092;51.996;4.458;2022-11-11T03:55:49;11.70;99.90
25112;DHT22;13092;51.996;4.458;2022-11-11T03:58:17;11.70;99.90
25112;DHT22;13092;51.996;4.458;2022-11-11T04:00:47;11.70;99.90
25112;DHT22;13092;51.996;4.458;2022-11-11T04:03:16;11.70;99.90
25112;DHT22;13092;51.996;4.458;2022-11-11T04:06:03;11.60;99.90
25112;DHT22;13092;51.996;4.458;2022-11-11T04:08:45;11.60;99.90
25112;DHT22;13092;51.996;4.458;2022-11-11T04:11:30;11.60;99.90
25112;DHT22;13092;51.996;4.458;2022-11-11T04:14:02;11.60;99.90
25112;DHT22;13092;51.996;4.458;2022-11-11T04:17:03;11.60;99.90
25112;DHT22;13092;51.996;4.458;2022-11-11T04:19:31;11.60;99.90
25112;DHT22;13092;51.996;4.458;2022-11-11T04:22:17;11.60;99.90
25112;DHT22;13092;51.996;4.458;2022-11-11T04:24:48;11.60;99.90
25112;DHT22;13092;51.996;4.458;2022-11-11T04:27:33;11.50;99.90
25112;DHT22;13092;51.996;4.458;2022-11-11T04:30:06;11.60;99.90
25112;DHT22;13092;51.996;4.458;2022-11-11T04:32:34;11.50;99.90
25112;DHT22;13092;51.996;4.458;2022-11-11T04:35:07;11.40;99.90
25112;DHT22;13092;51.996;4.458;2022-11-11T04:37:36;11.50;99.90
25112;DHT22;13092;51.996;4.458;2022-11-11T04:40:11;11.50;99.90
25112;DHT22;13092;51.996;4.458;2022-11-11T04:42:57;11.50;99.90
25112;DHT22;13092;51.996;4.458;2022-11-11T04:45:24;11.50;99.90
25112;DHT22;13092;51.996;4.458;2022-11-11T04:47:57;11.50;99.90
25112;DHT22;13092;51.996;4.458;2022-11-11T04:50:27;11.40;99.90
25112;DHT22;13092;51.996;4.458;2022-11-11T04:52:55;11.40;99.90
25112;DHT22;13092;51.996;4.458;2022-11-11T04:55:24;11.40;99.90
25112;DHT22;13092;51.996;4.458;2022-11-11T04:58:10;11.40;99.90
25112;DHT22;13092;51.996;4.458;2022-11-11T05:00:38;11.40;99.90
25112;DHT22;13092;51.996;4.458;2022-11-11T05:03:11;11.50;99.90
25112;DHT22;13092;51.996;4.458;2022-11-11T05:05:42;11.40;99.90
25112;DHT22;13092;51.996;4.458;2022-11-11T05:08:28;11.40;99.90
25112;DHT22;13092;51.996;4.458;2022-11-11T05:11:13;11.30;99.90
25112;DHT22;13092;51.996;4.458;2022-11-11T05:13:41;11.30;99.90
25112;DHT22;13092;51.996;4.458;2022-11-11T05:16:29;11.40;99.90
25112;DHT22;13092;51.996;4.458;2022-11-11T05:19:17;11.20;99.90
25112;DHT22;13092;51.996;4.458;2022-11-11T05:22:07;11.40;99.90
25112;DHT22;13092;51.996;4.458;2022-11-11T05:24:36;11.20;99.90
25112;DHT22;13092;51.996;4.458;2022-11-11T05:27:21;11.20;99.90
25112;DHT22;13092;51.996;4.458;2022-11-11T05:29:49;11.20;99.90
25112;DHT22;13092;51.996;4.458;2022-11-11T05:32:18;11.10;99.90
25112;DHT22;13092;51.996;4.458;2022-11-11T05:34:51;11.30;99.90
25112;DHT22;13092;51.996;4.458;2022-11-11T05:37:19;11.20;99.90
25112;DHT22;13092;51.996;4.458;2022-11-11T05:39:47;11.30;99.90
25112;DHT22;13092;51.996;4.458;2022-11-11T05:42:16;11.20;99.90
25112;DHT22;13092;51.996;4.458;2022-11-11T05:44:45;11.20;99.90
25112;DHT22;13092;51.996;4.458;2022-11-11T05:47:13;11.40;99.90
25112;DHT22;13092;51.996;4.458;2022-11-11T05:49:41;11.20;99.90
25112;DHT22;13092;51.996;4.458;2022-11-11T05:52:11;11.20;99.90
25112;DHT22;13092;51.996;4.458;2022-11-11T05:54:40;11.20;99.90
25112;DHT22;13092;51.996;4.458;2022-11-11T05:57:08;11.20;99.90
25112;DHT22;13092;51.996;4.458;2022-11-11T05:59:36;11.20;99.90
25112;DHT22;13092;51.996;4.458;2022-11-11T06:02:08;11.20;99.90
25112;DHT22;13092;51.996;4.458;2022-11-11T06:04:36;11.20;99.90
25112;DHT22;13092;51.996;4.458;2022-11-11T06:07:04;11.30;99.90
25112;DHT22;13092;51.996;4.458;2022-11-11T06:09:34;11.20;99.90
25112;DHT22;13092;51.996;4.458;2022-11-11T06:12:02;11.20;99.90
25112;DHT22;13092;51.996;4.458;2022-11-11T06:14:30;11.30;99.90
25112;DHT22;13092;51.996;4.458;2022-11-11T06:16:58;11.30;99.90
25112;DHT22;13092;51.996;4.458;2022-11-11T06:19:26;11.30;99.90
25112;DHT22;13092;51.996;4.458;2022-11-11T06:21:54;11.30;99.90
25112;DHT22;13092;51.996;4.458;2022-11-11T06:24:26;11.30;99.90
25112;DHT22;13092;51.996;4.458;2022-11-11T06:26:56;11.30;99.90
25112;DHT22;13092;51.996;4.458;2022-11-11T06:29:24;11.20;99.90
25112;DHT22;13092;51.996;4.458;2022-11-11T06:31:51;11.30;99.90
25112;DHT22;13092;51.996;4.458;2022-11-11T06:34:19;11.30;99.90
25112;DHT22;13092;51.996;4.458;2022-11-11T06:36:47;11.20;99.90
25112;DHT22;13092;51.996;4.458;2022-11-11T06:39:17;11.20;99.90
25112;DHT22;13092;51.996;4.458;2022-11-11T06:41:44;11.20;99.90
25112;DHT22;13092;51.996;4.458;2022-11-11T06:44:14;11.20;99.90
25112;DHT22;13092;51.996;4.458;2022-11-11T06:46:42;11.20;99.90
25112;DHT22;13092;51.996;4.458;2022-11-11T06:49:10;11.20;99.90
25112;DHT22;13092;51.996;4.458;2022-11-11T06:51:38;11.10;99.90
25112;DHT22;13092;51.996;4.458;2022-11-11T06:54:06;11.30;99.90
25112;DHT22;13092;51.996;4.458;2022-11-11T06:56:34;11.10;99.90
25112;DHT22;13092;51.996;4.458;2022-11-11T06:59:02;11.10;99.90
25112;DHT22;13092;51.996;4.458;2022-11-11T07:01:31;11.10;99.90
25112;DHT22;13092;51.996;4.458;2022-11-11T07:03:59;11.10;99.90
25112;DHT22;13092;51.996;4.458;2022-11-11T07:06:30;11.10;99.90
25112;DHT22;13092;51.996;4.458;2022-11-11T07:08:58;11.10;99.90
25112;DHT22;13092;51.996;4.458;2022-11-11T07:11:26;11.10;99.90
25112;DHT22;13092;51.996;4.458;2022-11-11T07:13:54;11.10;99.90
25112;DHT22;13092;51.996;4.458;2022-11-11T07:16:24;11.10;99.90
25112;DHT22;13092;51.996;4.458;2022-11-11T07:18:53;11.00;99.90
25112;DHT22;13092;51.996;4.458;2022-11-11T07:21:21;11.10;99.90
25112;DHT22;13092;51.996;4.458;2022-11-11T07:23:52;11.10;99.90
25112;DHT22;13092;51.996;4.458;2022-11-11T07:26:20;11.10;99.90
25112;DHT22;13092;51.996;4.458;2022-11-11T07:28:48;11.10;99.90
25112;DHT22;13092;51.996;4.458;2022-11-11T07:31:17;11.10;99.90
25112;DHT22;13092;51.996;4.458;2022-11-11T07:33:44;11.00;99.90
25112;DHT22;13092;51.996;4.458;2022-11-11T07:36:14;11.10;99.90
25112;DHT22;13092;51.996;4.458;2022-11-11T07:38:42;11.00;99.90
25112;DHT22;13092;51.996;4.458;2022-11-11T07:41:10;11.10;99.90
25112;DHT22;13092;51.996;4.458;2022-11-11T07:43:38;11.10;99.90
25112;DHT22;13092;51.996;4.458;2022-11-11T07:46:06;11.10;99.90
25112;DHT22;13092;51.996;4.458;2022-11-11T07:48:34;11.10;99.90
25112;DHT22;13092;51.996;4.458;2022-11-11T07:51:02;11.10;99.90
25112;DHT22;13092;51.996;4.458;2022-11-11T07:53:31;11.10;99.90
25112;DHT22;13092;51.996;4.458;2022-11-11T07:55:59;11.10;99.90
25112;DHT22;13092;51.996;4.458;2022-11-11T07:58:29;11.10;99.90
25112;DHT22;13092;51.996;4.458;2022-11-11T08:00:58;11.10;99.90
25112;DHT22;13092;51.996;4.458;2022-11-11T08:03:33;11.20;99.90
25112;DHT22;13092;51.996;4.458;2022-11-11T08:06:01;11.20;99.90
25112;DHT22;13092;51.996;4.458;2022-11-11T08:08:31;11.30;99.90
25112;DHT22;13092;51.996;4.458;2022-11-11T08:10:59;11.20;99.90
25112;DHT22;13092;51.996;4.458;2022-11-11T08:13:29;11.20;99.90
25112;DHT22;13092;51.996;4.458;2022-11-11T08:16:06;11.20;99.90
25112;DHT22;13092;51.996;4.458;2022-11-11T08:18:34;11.40;99.90
25112;DHT22;13092;51.996;4.458;2022-11-11T08:21:03;11.30;99.90
25112;DHT22;13092;51.996;4.458;2022-11-11T08:23:33;11.50;99.90
25112;DHT22;13092;51.996;4.458;2022-11-11T08:26:22;11.30;99.90
25112;DHT22;13092;51.996;4.458;2022-11-11T08:28:55;11.40;99.90
25112;DHT22;13092;51.996;4.458;2022-11-11T08:31:23;11.30;99.90
25112;DHT22;13092;51.996;4.458;2022-11-11T08:33:52;11.40;99.90
25112;DHT22;13092;51.996;4.458;2022-11-11T08:36:21;11.40;99.90
25112;DHT22;13092;51.996;4.458;2022-11-11T08:38:52;11.50;99.90
25112;DHT22;13092;51.996;4.458;2022-11-11T08:41:20;11.70;99.90
25112;DHT22;13092;51.996;4.458;2022-11-11T08:43:51;11.50;99.90
25112;DHT22;13092;51.996;4.458;2022-11-11T08:46:20;11.70;99.90
25112;DHT22;13092;51.996;4.458;2022-11-11T08:48:48;11.60;99.90
25112;DHT22;13092;51.996;4.458;2022-11-11T08:51:17;11.50;99.90
25112;DHT22;13092;51.996;4.458;2022-11-11T08:53:44;11.60;99.90
25112;DHT22;13092;51.996;4.458;2022-11-11T08:56:14;11.60;99.90
25112;DHT22;13092;51.996;4.458;2022-11-11T08:58:42;11.60;99.90
25112;DHT22;13092;51.996;4.458;2022-11-11T09:01:11;11.80;99.90
25112;DHT22;13092;51.996;4.458;2022-11-11T09:03:42;11.60;99.90
25112;DHT22;13092;51.996;4.458;2022-11-11T09:06:12;11.80;99.90
25112;DHT22;13092;51.996;4.458;2022-11-11T09:08:43;11.80;99.90
25112;DHT22;13092;51.996;4.458;2022-11-11T09:11:11;11.80;99.90
25112;DHT22;13092;51.996;4.458;2022-11-11T09:13:41;11.80;99.90
25112;DHT22;13092;51.996;4.458;2022-11-11T09:16:09;11.90;99.90
25112;DHT22;13092;51.996;4.458;2022-11-11T09:18:37;11.90;99.90
25112;DHT22;13092;51.996;4.458;2022-11-11T09:21:05;11.90;99.90
25112;DHT22;13092;51.996;4.458;2022-11-11T09:23:33;12.00;99.90
25112;DHT22;13092;51.996;4.458;2022-11-11T09:26:05;11.90;99.90
25112;DHT22;13092;51.996;4.458;2022-11-11T09:28:33;12.00;99.90
25112;DHT22;13092;51.996;4.458;2022-11-11T09:31:06;12.10;99.90
25112;DHT22;13092;51.996;4.458;2022-11-11T09:33:54;12.10;99.90
25112;DHT22;13092;51.996;4.458;2022-11-11T09:36:22;12.10;99.90
25112;DHT22;13092;51.996;4.458;2022-11-11T09:38:50;12.20;99.90
25112;DHT22;13092;51.996;4.458;2022-11-11T09:41:22;12.30;99.90
25112;DHT22;13092;51.996;4.458;2022-11-11T09:43:56;12.30;99.90
25112;DHT22;13092;51.996;4.458;2022-11-11T09:46:32;12.30;99.90
25112;DHT22;13092;51.996;4.458;2022-11-11T09:49:19;12.30;99.90
25112;DHT22;13092;51.996;4.458;2022-11-11T09:51:55;12.30;99.90
25112;DHT22;13092;51.996;4.458;2022-11-11T09:54:33;12.30;99.90
25112;DHT22;13092;51.996;4.458;2022-11-11T09:57:07;12.40;99.90
25112;DHT22;13092;51.996;4.458;2022-11-11T09:59:43;12.30;99.90
25112;DHT22;13092;51.996;4.458;2022-11-11T10:02:19;12.40;99.90
25112;DHT22;13092;51.996;4.458;2022-11-11T10:04:56;12.50;99.90
25112;DHT22;13092;51.996;4.458;2022-11-11T10:07:33;12.30;99.90
25112;DHT22;13092;51.996;4.458;2022-11-11T10:10:13;12.40;99.90
25112;DHT22;13092;51.996;4.458;2022-11-11T10:12:48;12.40;99.90
25112;DHT22;13092;51.996;4.458;2022-11-11T10:15:17;12.40;99.90
25112;DHT22;13092;51.996;4.458;2022-11-11T10:17:54;12.40;99.90
25112;DHT22;13092;51.996;4.458;2022-11-11T10:20:28;12.20;99.90
25112;DHT22;13092;51.996;4.458;2022-11-11T10:23:00;12.40;99.90
25112;DHT22;13092;51.996;4.458;2022-11-11T10:25:30;12.30;99.90
25112;DHT22;13092;51.996;4.458;2022-11-11T10:28:00;12.40;99.90
25112;DHT22;13092;51.996;4.458;2022-11-11T10:30:31;12.40;99.90
25112;DHT22;13092;51.996;4.458;2022-11-11T10:33:03;12.60;99.90
25112;DHT22;13092;51.996;4.458;2022-11-11T10:35:32;12.50;99.90
25112;DHT22;13092;51.996;4.458;2022-11-11T10:38:16;12.60;99.90
25112;DHT22;13092;51.996;4.458;2022-11-11T10:40:49;12.60;99.90
25112;DHT22;13092;51.996;4.458;2022-11-11T10:43:22;12.70;99.90
25112;DHT22;13092;51.996;4.458;2022-11-11T10:45:57;12.70;99.90
25112;DHT22;13092;51.996;4.458;2022-11-11T10:48:37;12.80;99.90
25112;DHT22;13092;51.996;4.458;2022-11-11T10:51:10;12.90;99.90
25112;DHT22;13092;51.996;4.458;2022-11-11T10:53:43;12.70;99.90
25112;DHT22;13092;51.996;4.458;2022-11-11T10:56:18;12.70;99.90
25112;DHT22;13092;51.996;4.458;2022-11-11T10:58:51;12.70;99.90
25112;DHT22;13092;51.996;4.458;2022-11-11T11:01:35;12.70;99.90
25112;DHT22;13092;51.996;4.458;2022-11-11T11:08:05;12.80;99.90
25112;DHT22;13092;51.996;4.458;2022-11-11T11:10:39;12.80;99.90
25112;DHT22;13092;51.996;4.458;2022-11-11T11:13:15;12.80;99.90
25112;DHT22;13092;51.996;4.458;2022-11-11T11:15:48;12.90;99.90
25112;DHT22;13092;51.996;4.458;2022-11-11T11:18:20;12.90;99.90
25112;DHT22;13092;51.996;4.458;2022-11-11T11:20:56;12.90;99.90
25112;DHT22;13092;51.996;4.458;2022-11-11T11:23:38;12.90;99.90
25112;DHT22;13092;51.996;4.458;2022-11-11T11:26:09;12.90;99.90
25112;DHT22;13092;51.996;4.458;2022-11-11T11:28:53;13.00;99.90
25112;DHT22;13092;51.996;4.458;2022-11-11T11:31:34;13.10;99.90
25112;DHT22;13092;51.996;4.458;2022-11-11T11:34:04;12.90;99.90
25112;DHT22;13092;51.996;4.458;2022-11-11T11:36:33;13.00;99.90
25112;DHT22;13092;51.996;4.458;2022-11-11T11:39:03;13.00;99.90
25112;DHT22;13092;51.996;4.458;2022-11-11T11:41:36;13.00;99.90
25112;DHT22;13092;51.996;4.458;2022-11-11T11:44:28;13.00;99.90
25112;DHT22;13092;51.996;4.458;2022-11-11T11:47:07;13.00;99.90
25112;DHT22;13092;51.996;4.458;2022-11-11T11:49:50;12.90;99.90
25112;DHT22;13092;51.996;4.458;2022-11-11T11:52:33;12.80;99.90
25112;DHT22;13092;51.996;4.458;2022-11-11T11:55:15;12.80;99.90
25112;DHT22;13092;51.996;4.458;2022-11-11T11:57:55;13.00;99.90
25112;DHT22;13092;51.996;4.458;2022-11-11T12:00:30;12.90;99.90
25112;DHT22;13092;51.996;4.458;2022-11-11T12:06:10;12.90;99.90
25112;DHT22;13092;51.996;4.458;2022-11-11T12:08:53;12.90;99.90
25112;DHT22;13092;51.996;4.458;2022-11-11T12:11:34;13.10;99.90
25112;DHT22;13092;51.996;4.458;2022-11-11T12:14:30;13.00;99.90
25112;DHT22;13092;51.996;4.458;2022-11-11T12:17:06;13.00;99.90
25112;DHT22;13092;51.996;4.458;2022-11-11T12:19:47;13.20;99.90
25112;DHT22;13092;51.996;4.458;2022-11-11T12:22:32;13.20;99.90
25112;DHT22;13092;51.996;4.458;2022-11-11T12:25:16;13.20;99.90
25112;DHT22;13092;51.996;4.458;2022-11-11T12:27:55;13.30;99.90
25112;DHT22;13092;51.996;4.458;2022-11-11T12:30:32;13.40;99.90
25112;DHT22;13092;51.996;4.458;2022-11-11T12:33:31;13.50;99.90
25112;DHT22;13092;51.996;4.458;2022-11-11T12:36:09;13.50;99.90
25112;DHT22;13092;51.996;4.458;2022-11-11T12:38:57;13.60;99.90
25112;DHT22;13092;51.996;4.458;2022-11-11T12:41:35;13.60;99.90
25112;DHT22;13092;51.996;4.458;2022-11-11T12:44:09;13.70;99.90
25112;DHT22;13092;51.996;4.458;2022-11-11T12:46:55;13.70;99.90
25112;DHT22;13092;51.996;4.458;2022-11-11T12:49:40;13.70;99.90
25112;DHT22;13092;51.996;4.458;2022-11-11T12:52:23;13.80;99.90
25112;DHT22;13092;51.996;4.458;2022-11-11T12:55:25;14.00;99.90
25112;DHT22;13092;51.996;4.458;2022-11-11T12:58:06;13.90;99.90
25112;DHT22;13092;51.996;4.458;2022-11-11T13:00:49;13.90;99.90
25112;DHT22;13092;51.996;4.458;2022-11-11T13:06:43;14.00;99.90
25112;DHT22;13092;51.996;4.458;2022-11-11T13:09:39;14.20;99.90
25112;DHT22;13092;51.996;4.458;2022-11-11T13:12:15;14.20;99.90
25112;DHT22;13092;51.996;4.458;2022-11-11T13:14:54;14.10;99.90
25112;DHT22;13092;51.996;4.458;2022-11-11T13:17:25;14.20;99.90
25112;DHT22;13092;51.996;4.458;2022-11-11T13:19:55;14.30;99.90
25112;DHT22;13092;51.996;4.458;2022-11-11T13:22:27;14.40;99.90
25112;DHT22;13092;51.996;4.458;2022-11-11T13:25:01;14.30;99.90
25112;DHT22;13092;51.996;4.458;2022-11-11T13:27:38;14.40;99.90
25112;DHT22;13092;51.996;4.458;2022-11-11T13:30:36;14.40;99.90
25112;DHT22;13092;51.996;4.458;2022-11-11T13:33:25;14.50;99.90
25112;DHT22;13092;51.996;4.458;2022-11-11T13:35:57;14.50;99.90
25112;DHT22;13092;51.996;4.458;2022-11-11T13:38:32;14.50;99.90
25112;DHT22;13092;51.996;4.458;2022-11-11T13:41:08;14.50;99.90
25112;DHT22;13092;51.996;4.458;2022-11-11T13:43:43;14.50;99.90
25112;DHT22;13092;51.996;4.458;2022-11-11T13:46:36;14.60;99.90
25112;DHT22;13092;51.996;4.458;2022-11-11T13:49:24;14.50;99.90
25112;DHT22;13092;51.996;4.458;2022-11-11T13:52:17;14.50;99.90
25112;DHT22;13092;51.996;4.458;2022-11-11T13:55:03;14.60;99.90
25112;DHT22;13092;51.996;4.458;2022-11-11T13:57:53;14.50;99.90
25112;DHT22;13092;51.996;4.458;2022-11-11T14:00:38;14.60;99.90
25112;DHT22;13092;51.996;4.458;2022-11-11T14:11:27;14.50;99.90
25112;DHT22;13092;51.996;4.458;2022-11-11T14:14:58;14.50;99.90
25112;DHT22;13092;51.996;4.458;2022-11-11T14:17:56;14.50;99.90
25112;DHT22;13092;51.996;4.458;2022-11-11T14:20:37;14.40;99.90
25112;DHT22;13092;51.996;4.458;2022-11-11T14:23:32;14.40;99.90
25112;DHT22;13092;51.996;4.458;2022-11-11T14:26:31;14.40;99.90
25112;DHT22;13092;51.996;4.458;2022-11-11T14:29:29;14.40;99.90
25112;DHT22;13092;51.996;4.458;2022-11-11T14:35:14;14.30;99.90
25112;DHT22;13092;51.996;4.458;2022-11-11T14:40:11;14.30;99.90
25112;DHT22;13092;51.996;4.458;2022-11-11T14:42:46;14.20;99.90
25112;DHT22;13092;51.996;4.458;2022-11-11T14:48:56;14.30;99.90
25112;DHT22;13092;51.996;4.458;2022-11-11T14:51:52;14.30;99.90
25112;DHT22;13092;51.996;4.458;2022-11-11T14:54:35;14.30;99.90
25112;DHT22;13092;51.996;4.458;2022-11-11T14:57:06;14.30;99.90
25112;DHT22;13092;51.996;4.458;2022-11-11T14:59:41;14.30;99.90
25112;DHT22;13092;51.996;4.458;2022-11-11T15:02:22;14.20;99.90
25112;DHT22;13092;51.996;4.458;2022-11-11T15:04:51;14.10;99.90
25112;DHT22;13092;51.996;4.458;2022-11-11T15:07:27;14.10;99.90
25112;DHT22;13092;51.996;4.458;2022-11-11T15:10:19;14.00;99.90
25112;DHT22;13092;51.996;4.458;2022-11-11T15:15:47;14.00;99.90
25112;DHT22;13092;51.996;4.458;2022-11-11T15:18:32;13.90;99.90
25112;DHT22;13092;51.996;4.458;2022-11-11T15:21:08;14.00;99.90
25112;DHT22;13092;51.996;4.458;2022-11-11T15:23:43;13.90;99.90
25112;DHT22;13092;51.996;4.458;2022-11-11T15:26:19;13.90;99.90
25112;DHT22;13092;51.996;4.458;2022-11-11T15:29:04;13.90;99.90
25112;DHT22;13092;51.996;4.458;2022-11-11T15:31:43;13.90;99.90
25112;DHT22;13092;51.996;4.458;2022-11-11T15:34:28;13.90;99.90
25112;DHT22;13092;51.996;4.458;2022-11-11T15:37:02;13.90;99.90
25112;DHT22;13092;51.996;4.458;2022-11-11T15:39:38;13.90;99.90
25112;DHT22;13092;51.996;4.458;2022-11-11T15:42:11;13.80;99.90
25112;DHT22;13092;51.996;4.458;2022-11-11T15:44:40;13.80;99.90
25112;DHT22;13092;51.996;4.458;2022-11-11T15:47:13;13.70;99.90
25112;DHT22;13092;51.996;4.458;2022-11-11T15:49:43;13.70;99.90
25112;DHT22;13092;51.996;4.458;2022-11-11T15:52:25;13.70;99.90
25112;DHT22;13092;51.996;4.458;2022-11-11T15:54:54;13.60;99.90
25112;DHT22;13092;51.996;4.458;2022-11-11T15:57:27;13.60;99.90
25112;DHT22;13092;51.996;4.458;2022-11-11T15:59:56;13.50;99.90
25112;DHT22;13092;51.996;4.458;2022-11-11T16:02:29;13.50;99.90
25112;DHT22;13092;51.996;4.458;2022-11-11T16:04:59;13.50;99.90
25112;DHT22;13092;51.996;4.458;2022-11-11T16:07:30;13.40;99.90
25112;DHT22;13092;51.996;4.458;2022-11-11T16:10:06;13.40;99.90
25112;DHT22;13092;51.996;4.458;2022-11-11T16:12:42;13.30;99.90
25112;DHT22;13092;51.996;4.458;2022-11-11T16:15:19;13.30;99.90
25112;DHT22;13092;51.996;4.458;2022-11-11T16:17:50;13.30;99.90
25112;DHT22;13092;51.996;4.458;2022-11-11T16:20:26;13.30;99.90
25112;DHT22;13092;51.996;4.458;2022-11-11T16:22:59;13.20;99.90
25112;DHT22;13092;51.996;4.458;2022-11-11T16:25:29;13.10;99.90
25112;DHT22;13092;51.996;4.458;2022-11-11T16:27:58;13.00;99.90
25112;DHT22;13092;51.996;4.458;2022-11-11T16:30:30;13.10;99.90
25112;DHT22;13092;51.996;4.458;2022-11-11T16:33:02;13.10;99.90
25112;DHT22;13092;51.996;4.458;2022-11-11T16:35:34;13.10;99.90
25112;DHT22;13092;51.996;4.458;2022-11-11T16:38:03;13.20;99.90
25112;DHT22;13092;51.996;4.458;2022-11-11T16:40:38;13.20;99.90
25112;DHT22;13092;51.996;4.458;2022-11-11T16:43:20;13.00;99.90
25112;DHT22;13092;51.996;4.458;2022-11-11T16:45:52;13.00;99.90